Página principal
METAR-TAF:

METAR-TAF

Aeroportos :

Havana, Cuba

Aeroporto Internacional José Martí

latitude: 22-59N, longitude: 082-24W, altura: 59 m

Observação actual do tempo

O boletim foi feito há 1 hora e 9 minutos, às 14:55 UTC
Vento 2 kt com direcção variável
Temperatura 28°C
Humidade 66%
Pressão 1017 hPa
Visibilidade 10 km ou mais
Nuvens fragmentadasa uma altura de 2500 ft

METAR: MUHA 241455Z VRB02KT 9999 BKN025 28/21 Q1017

Hora: 12:04 (16:04 UTC)

Previsão

O boletim foi feito há 5 horas e 4 minutos, às 11:00 UTC
Previsão válida de 24 às 12 UTC a 25 às 12 UTC
Vento 3 kt com direcção variável
Visibilidade: 9000 m
Nuvens dispersasa uma altura de 3000 ft
Temporariamente
de 24 às 20 UTC a 24 às 24 UTC
Vento 10 kt com direcção variável
Visibilidade: 5000 m
Poucas nuvensa uma altura de 2000 ft, Cumulonimbus.
Nuvens fragmentadasa uma altura de 2500 ft
trovoada, chuva

TAF: MUHA 241100Z 2412/2512 VRB03KT 9000 SCT030 TEMPO 2420/2424 VRB10KT 5000 TSRA FEW020CB BKN025

Observações e previsões do tempo de mais de 4000 aeroportos (mensagens METAR e TAF).

As estações disponíveis são os pontos amarelos e vermelhos sobre o mapa.

Mova o rato sobre o mapa para ver o nome da estação.

Depois clique no ponto para visualizar as observações e previsões meteorológicas.

Para alterar o mapa : clique nos botões verdes com uma cruz preta para aumentar o zoom; no botão verde com uma pitada de zoom; ou nas setas verdes para mapas adjacentes.


METAR-TAF: